Time;durP1;ratioP1;P1;durP2;ratioP2;P2;SDS_P1;SDS_P2;PMS_P1;PMS_P2;Temp;Humidity;BMP_temperature;BMP_pressure;BME280_temperature;BME280_humidity;BME280_pressure;Samples;Min_cycle;Max_cycle;Signal;HPM_P1;HPM_P2
2022/04/25 00:00:35;;;;;;;16.70;8.23;;;7.90;99.90;;;;;;5022486;28;20049;-79
2022/04/25 00:03:03;;;;;;;15.32;9.18;;;8.00;99.90;;;;;;5024297;28;20406;-80
2022/04/25 00:05:29;;;;;;;19.52;9.70;;;8.10;99.90;;;;;;5004746;28;20476;-80
2022/04/25 00:07:55;;;;;;;16.05;9.70;;;8.00;99.90;;;;;;5002290;28;20515;-80
2022/04/25 00:10:23;;;;;;;18.75;9.15;;;8.10;99.90;;;;;;5029310;28;20044;-80
2022/04/25 00:12:49;;;;;;;18.33;10.02;;;8.10;99.90;;;;;;5022625;28;20519;-80
2022/04/25 00:15:15;;;;;;;17.80;9.55;;;8.00;99.90;;;;;;5040192;28;20041;-79
2022/04/25 00:17:41;;;;;;;17.02;10.07;;;8.10;99.90;;;;;;5008461;28;20053;-80
2022/04/25 00:20:08;;;;;;;18.25;10.10;;;8.10;99.90;;;;;;5011007;28;20471;-80
2022/04/25 00:22:34;;;;;;;18.67;10.20;;;8.20;99.90;;;;;;5008234;28;20057;-79
2022/04/25 00:25:02;;;;;;;16.98;9.52;;;8.20;99.90;;;;;;5006878;28;20563;-80
2022/04/25 00:27:29;;;;;;;21.48;10.80;;;8.20;99.90;;;;;;5023789;28;20084;-80
2022/04/25 00:29:58;;;;;;;18.88;10.30;;;8.20;99.90;;;;;;5007307;28;20041;-80
2022/04/25 00:32:24;;;;;;;20.60;9.95;;;8.20;99.90;;;;;;5022364;28;20045;-80
2022/04/25 00:34:50;;;;;;;21.60;10.68;;;8.20;99.90;;;;;;4997282;28;20396;-79
2022/04/25 00:37:15;;;;;;;18.25;10.48;;;8.20;99.90;;;;;;5004527;28;20041;-78
2022/04/25 00:39:41;;;;;;;16.92;9.63;;;8.20;99.90;;;;;;5019944;28;20097;-77
2022/04/25 00:42:07;;;;;;;16.50;10.15;;;8.20;99.90;;;;;;5011655;28;20045;-79
2022/04/25 00:44:32;;;;;;;19.38;11.25;;;8.20;99.90;;;;;;5019724;28;20436;-78
2022/04/25 00:47:00;;;;;;;18.75;10.70;;;8.20;99.90;;;;;;5003497;28;20136;-78
2022/04/25 00:49:26;;;;;;;21.48;10.30;;;8.10;99.90;;;;;;4985708;28;20500;-80
2022/04/25 00:51:52;;;;;;;17.98;10.75;;;8.20;99.90;;;;;;5022291;28;20057;-80
2022/04/25 00:54:22;;;;;;;21.65;11.55;;;8.20;99.90;;;;;;5028480;28;20533;-80
2022/04/25 00:56:49;;;;;;;25.27;10.57;;;8.10;99.90;;;;;;5040155;28;20052;-80
2022/04/25 00:59:21;;;;;;;20.98;10.52;;;8.10;99.90;;;;;;5024049;28;20032;-81
2022/04/25 01:01:47;;;;;;;18.77;10.00;;;8.40;99.90;;;;;;5022640;28;20033;-79
2022/04/25 01:04:13;;;;;;;20.83;11.52;;;8.10;99.90;;;;;;5041966;28;20684;-79
2022/04/25 01:06:39;;;;;;;26.08;10.55;;;8.00;99.90;;;;;;5023668;28;20052;-77
2022/04/25 01:09:05;;;;;;;18.20;10.45;;;8.10;99.90;;;;;;5022801;28;20080;-80
2022/04/25 01:11:31;;;;;;;16.13;9.18;;;8.00;99.90;;;;;;5024792;28;20424;-80
2022/04/25 01:13:57;;;;;;;16.73;9.98;;;8.00;99.90;;;;;;5044661;28;20076;-78
2022/04/25 01:16:22;;;;;;;17.00;11.10;;;8.00;99.90;;;;;;5024671;28;20033;-81
2022/04/25 01:18:48;;;;;;;21.63;11.23;;;8.00;99.90;;;;;;5022644;28;20092;-80
2022/04/25 01:21:18;;;;;;;19.80;10.98;;;8.00;99.90;;;;;;5026689;28;20052;-81
2022/04/25 01:29:13;;;;;;;15.75;9.77;;;7.80;99.90;;;;;;5044155;28;20064;-81
2022/04/25 01:31:42;;;;;;;21.08;10.77;;;7.90;99.90;;;;;;5022527;28;20057;-80
2022/04/25 01:34:08;;;;;;;19.70;11.80;;;7.80;99.90;;;;;;5024853;28;20058;-80
2022/04/25 01:36:34;;;;;;;19.90;11.63;;;7.80;99.90;;;;;;5042235;28;20087;-80
2022/04/25 01:39:00;;;;;;;18.42;11.45;;;7.80;99.90;;;;;;5026542;28;20041;-80
2022/04/25 01:41:26;;;;;;;29.05;12.70;;;7.70;99.90;;;;;;5027686;28;20045;-80
2022/04/25 01:43:52;;;;;;;21.30;11.65;;;7.60;99.90;;;;;;5044748;28;20555;-81
2022/04/25 01:46:17;;;;;;;16.85;11.27;;;7.70;99.90;;;;;;5028894;28;20053;-80
2022/04/25 01:48:43;;;;;;;23.48;11.02;;;7.80;99.90;;;;;;5037294;28;20155;-82
2022/04/25 01:51:10;;;;;;;19.60;11.45;;;7.60;99.90;;;;;;5036323;28;20048;-81
2022/04/25 01:53:35;;;;;;;19.45;12.40;;;7.50;99.90;;;;;;5026440;28;20100;-80
2022/04/25 01:56:01;;;;;;;22.05;12.23;;;7.50;99.90;;;;;;5027744;28;20117;-79
2022/04/25 01:58:26;;;;;;;19.90;11.88;;;7.50;99.90;;;;;;5045144;28;20119;-80
2022/04/25 02:00:53;;;;;;;21.15;12.85;;;7.60;99.90;;;;;;5042081;28;20033;-80
2022/04/25 02:03:19;;;;;;;21.05;12.10;;;7.50;99.90;;;;;;5030325;28;20050;-79
2022/04/25 02:05:44;;;;;;;24.13;12.20;;;7.50;99.90;;;;;;5049640;28;20036;-77
2022/04/25 02:08:10;;;;;;;22.27;13.27;;;7.40;99.90;;;;;;5050219;28;20155;-81
2022/04/25 02:10:36;;;;;;;17.52;11.90;;;7.50;99.90;;;;;;5029969;28;20077;-80
2022/04/25 02:13:01;;;;;;;21.10;11.93;;;7.60;99.90;;;;;;5040283;28;20056;-80
2022/04/25 02:15:27;;;;;;;18.23;12.00;;;7.40;99.90;;;;;;5045837;28;20048;-81
2022/04/25 02:17:53;;;;;;;21.42;11.65;;;7.40;99.90;;;;;;5024847;28;20408;-80
2022/04/25 02:20:19;;;;;;;22.30;10.95;;;7.40;99.90;;;;;;5046282;28;20044;-79
2022/04/25 02:22:45;;;;;;;19.05;9.85;;;7.50;99.90;;;;;;5025281;28;20467;-80
2022/04/25 02:25:10;;;;;;;17.50;8.80;;;7.50;99.90;;;;;;5024701;28;20088;-80
2022/04/25 02:27:36;;;;;;;25.08;10.30;;;7.60;99.90;;;;;;5047233;28;20088;-79
2022/04/25 02:30:04;;;;;;;18.23;10.85;;;7.70;99.90;;;;;;5033636;28;20100;-81
2022/04/25 02:32:30;;;;;;;17.65;10.43;;;7.70;99.90;;;;;;5028752;28;20084;-81
2022/04/25 02:34:56;;;;;;;18.85;10.60;;;7.70;99.90;;;;;;5043412;28;20437;-80
2022/04/25 02:37:22;;;;;;;19.67;10.50;;;7.70;99.90;;;;;;5029480;28;20132;-81
2022/04/25 02:39:49;;;;;;;11.20;7.53;;;8.00;99.90;;;;;;5047074;28;20480;-80
2022/04/25 02:42:14;;;;;;;15.57;9.45;;;7.80;99.90;;;;;;5046027;28;20041;-81
2022/04/25 02:44:40;;;;;;;16.83;8.90;;;7.80;99.90;;;;;;5023178;28;20047;-80
2022/04/25 02:47:06;;;;;;;15.85;9.73;;;7.90;99.90;;;;;;5030508;28;20053;-81
2022/04/25 02:49:31;;;;;;;13.45;8.95;;;7.80;99.90;;;;;;5023787;28;20044;-81
2022/04/25 02:51:59;;;;;;;15.00;9.23;;;7.80;99.90;;;;;;5045302;28;20103;-81
2022/04/25 02:54:24;;;;;;;16.30;8.10;;;7.90;99.90;;;;;;5047961;28;20048;-80
2022/04/25 02:56:50;;;;;;;16.23;8.07;;;7.80;99.90;;;;;;5045059;28;20476;-81
2022/04/25 02:59:16;;;;;;;17.85;8.20;;;7.80;99.90;;;;;;5046142;28;20040;-80
2022/04/25 03:01:43;;;;;;;17.98;8.95;;;7.90;99.90;;;;;;5031052;28;20032;-82
2022/04/25 03:04:10;;;;;;;14.77;8.57;;;7.90;99.90;;;;;;5045833;28;20047;-81
2022/04/25 03:06:35;;;;;;;15.77;8.60;;;8.20;99.90;;;;;;5030018;28;20072;-81
2022/04/25 03:09:02;;;;;;;15.63;8.60;;;7.80;99.90;;;;;;5041465;28;20049;-81
2022/04/25 03:11:27;;;;;;;16.40;8.95;;;7.90;99.90;;;;;;5046008;28;20460;-81
2022/04/25 03:13:53;;;;;;;16.85;9.23;;;8.20;99.90;;;;;;5048327;28;20052;-82
2022/04/25 03:16:19;;;;;;;19.25;9.15;;;7.90;99.90;;;;;;5045505;28;20043;-80
2022/04/25 03:18:46;;;;;;;13.65;8.25;;;8.00;99.90;;;;;;5030763;28;20063;-80
2022/04/25 03:21:11;;;;;;;16.80;8.85;;;7.90;99.90;;;;;;5040840;28;20044;-81
2022/04/25 03:23:37;;;;;;;18.05;8.30;;;7.90;99.90;;;;;;5045727;28;20055;-80
2022/04/25 03:26:04;;;;;;;15.85;8.30;;;7.80;99.90;;;;;;5046830;28;20037;-80
2022/04/25 03:28:30;;;;;;;16.90;7.78;;;7.90;99.90;;;;;;5031888;28;20048;-81
2022/04/25 03:30:56;;;;;;;14.55;8.20;;;7.90;99.90;;;;;;5030257;28;20045;-81
2022/04/25 03:37:03;;;;;;;14.15;7.25;;;7.90;99.90;;;;;;5049679;28;20071;-81
2022/04/25 03:39:29;;;;;;;14.57;7.38;;;8.00;99.90;;;;;;5029910;28;20065;-80
2022/04/25 03:41:55;;;;;;;12.82;7.43;;;8.00;99.90;;;;;;5030305;28;20130;-81
2022/04/25 03:44:21;;;;;;;17.75;8.65;;;8.00;99.90;;;;;;5045552;28;20364;-80
2022/04/25 03:46:47;;;;;;;16.05;8.30;;;7.90;99.90;;;;;;5029449;28;20037;-80
2022/04/25 03:49:13;;;;;;;19.30;9.30;;;7.90;99.90;;;;;;5029115;28;20051;-81
2022/04/25 03:51:40;;;;;;;14.45;9.10;;;7.90;99.90;;;;;;5029061;28;20484;-81
2022/04/25 03:54:06;;;;;;;18.88;9.20;;;8.00;99.90;;;;;;5028355;28;20053;-80
2022/04/25 03:59:16;;;;;;;16.08;8.43;;;7.80;99.90;;;;;;5049308;28;20381;-81
2022/04/25 04:01:42;;;;;;;14.55;8.93;;;7.80;99.90;;;;;;5032106;28;20040;-81
2022/04/25 04:04:11;;;;;;;13.48;8.27;;;7.70;99.90;;;;;;5045468;28;20116;-80
2022/04/25 04:06:37;;;;;;;20.48;9.18;;;7.70;99.90;;;;;;5025238;28;20048;-81
2022/04/25 04:09:44;;;;;;;16.27;8.40;;;7.80;99.90;;;;;;5036269;28;20029;-81
2022/04/25 04:11:49;;;;;;;13.38;8.05;;;8.10;99.90;;;;;;5044184;28;20136;-81
2022/04/25 04:14:14;;;;;;;13.65;7.57;;;7.70;99.90;;;;;;5027862;28;20116;-81
2022/04/25 04:16:42;;;;;;;13.95;8.10;;;7.70;99.90;;;;;;5024055;28;20049;-80
2022/04/25 04:19:08;;;;;;;17.92;8.73;;;7.70;99.90;;;;;;5028806;28;20036;-80
2022/04/25 04:21:34;;;;;;;13.23;7.28;;;7.70;99.90;;;;;;5043703;28;20043;-81
2022/04/25 04:24:01;;;;;;;14.88;8.57;;;7.60;99.90;;;;;;5043503;28;20036;-81
2022/04/25 04:26:28;;;;;;;16.05;8.65;;;7.70;99.90;;;;;;5044650;28;20088;-79
2022/04/25 04:28:56;;;;;;;16.55;7.85;;;7.70;99.90;;;;;;5025907;28;20099;-80
2022/04/25 04:31:22;;;;;;;13.40;8.15;;;7.70;99.90;;;;;;5029722;28;20040;-81
2022/04/25 04:33:48;;;;;;;14.40;8.23;;;7.60;99.90;;;;;;5029261;28;20056;-81
2022/04/25 04:36:19;;;;;;;20.10;8.85;;;7.60;99.90;;;;;;5040411;28;20396;-80
2022/04/25 04:38:45;;;;;;;20.30;8.70;;;7.60;99.90;;;;;;5027305;28;20060;-80
2022/04/25 04:41:12;;;;;;;15.25;8.00;;;7.60;99.90;;;;;;5029184;28;20104;-81
2022/04/25 04:43:38;;;;;;;15.80;8.45;;;7.60;99.90;;;;;;5029676;28;20056;-81
2022/04/25 04:46:04;;;;;;;14.55;7.90;;;7.60;99.90;;;;;;5027460;28;20041;-80
2022/04/25 04:48:29;;;;;;;13.35;8.10;;;7.60;99.90;;;;;;5028989;28;20069;-81
2022/04/25 04:50:56;;;;;;;15.63;7.80;;;7.60;99.90;;;;;;5026411;28;20076;-81
2022/04/25 04:53:22;;;;;;;16.45;7.85;;;7.70;99.90;;;;;;5031492;28;20103;-81
2022/04/25 04:55:49;;;;;;;15.73;9.00;;;7.70;99.90;;;;;;5021926;28;20495;-81
2022/04/25 04:58:15;;;;;;;13.65;8.88;;;7.70;99.90;;;;;;5038551;28;20195;-78
2022/04/25 05:00:44;;;;;;;15.05;8.75;;;7.70;99.90;;;;;;5056841;28;20060;-78
2022/04/25 05:03:15;;;;;;;15.65;8.90;;;8.00;99.90;;;;;;5029613;28;20075;-81
2022/04/25 05:05:42;;;;;;;16.95;8.73;;;7.70;99.90;;;;;;5022725;28;20123;-80
2022/04/25 05:08:08;;;;;;;14.57;8.65;;;7.70;99.90;;;;;;5028526;28;20060;-81
2022/04/25 05:10:33;;;;;;;21.13;8.40;;;7.70;99.90;;;;;;5023624;28;20052;-80
2022/04/25 05:12:59;;;;;;;17.50;8.63;;;7.70;99.90;;;;;;5027094;28;20037;-81
2022/04/25 05:15:25;;;;;;;17.92;8.82;;;8.00;99.90;;;;;;5028441;28;20052;-80
2022/04/25 05:17:54;;;;;;;15.32;8.88;;;8.30;99.90;;;;;;5023473;28;20048;-81
2022/04/25 05:20:24;;;;;;;20.75;9.05;;;7.80;99.90;;;;;;5045984;28;20080;-81
2022/04/25 05:22:51;;;;;;;15.07;9.20;;;7.70;99.90;;;;;;5043241;28;20531;-81
2022/04/25 05:25:18;;;;;;;13.60;8.13;;;7.80;99.90;;;;;;5027298;28;20120;-81
2022/04/25 05:27:49;;;;;;;15.45;9.20;;;8.00;99.90;;;;;;5030526;28;20614;-82
2022/04/25 05:30:16;;;;;;;17.95;8.73;;;7.70;99.90;;;;;;5026133;28;20033;-82
2022/04/25 05:32:51;;;;;;;15.27;6.90;;;7.70;99.90;;;;;;5026974;28;20059;-87
2022/04/25 05:35:19;;;;;;;13.68;8.13;;;8.30;99.90;;;;;;5023980;28;20047;-81
2022/04/25 05:37:45;;;;;;;13.55;8.30;;;8.30;99.90;;;;;;5027638;28;20120;-81
2022/04/25 05:40:18;;;;;;;15.30;8.75;;;8.20;99.90;;;;;;5048081;28;20032;-82
2022/04/25 05:42:45;;;;;;;16.45;8.43;;;8.00;99.90;;;;;;5031617;28;20037;-81
2022/04/25 05:45:16;;;;;;;19.35;8.40;;;8.00;99.90;;;;;;5046796;28;20065;-85
2022/04/25 05:47:44;;;;;;;14.60;8.30;;;8.30;99.90;;;;;;5049440;28;20476;-82
2022/04/25 05:52:59;;;;;;;16.80;8.13;;;8.40;99.90;;;;;;5044846;28;20359;-83
2022/04/25 05:55:28;;;;;;;15.25;8.82;;;7.80;99.90;;;;;;5051317;28;20042;-81
2022/04/25 05:57:54;;;;;;;15.85;8.70;;;7.90;99.90;;;;;;5037910;28;20045;-81
2022/04/25 06:00:19;;;;;;;20.83;9.60;;;7.80;99.90;;;;;;5035986;28;20037;-80
2022/04/25 06:02:47;;;;;;;13.90;8.63;;;7.80;99.90;;;;;;5040345;28;20082;-77
2022/04/25 06:05:16;;;;;;;17.88;9.63;;;7.90;99.90;;;;;;5038281;28;20219;-79
2022/04/25 06:07:43;;;;;;;15.60;9.70;;;8.00;99.90;;;;;;5012407;28;20080;-78
2022/04/25 06:10:13;;;;;;;17.48;9.55;;;7.90;99.90;;;;;;5009791;28;20035;-81
2022/04/25 06:12:50;;;;;;;16.23;9.13;;;7.90;99.90;;;;;;5038434;28;20056;-81
2022/04/25 06:15:26;;;;;;;16.95;9.18;;;8.00;99.90;;;;;;5022300;28;20037;-80
2022/04/25 06:17:54;;;;;;;14.00;8.80;;;8.10;99.90;;;;;;5023544;28;20099;-81
2022/04/25 06:20:59;;;;;;;17.10;8.82;;;8.00;99.90;;;;;;5029375;28;20055;-79
2022/04/25 06:23:24;;;;;;;13.68;8.98;;;8.10;99.90;;;;;;5041287;28;20052;-77
2022/04/25 06:25:50;;;;;;;12.80;8.82;;;8.30;99.90;;;;;;5030229;28;20169;-80
2022/04/25 06:28:17;;;;;;;16.95;8.18;;;8.30;99.90;;;;;;5053807;28;20069;-80
2022/04/25 06:30:43;;;;;;;13.70;8.02;;;8.30;99.90;;;;;;5045360;28;20053;-81
2022/04/25 06:33:09;;;;;;;15.35;7.57;;;8.40;99.90;;;;;;5019318;28;20054;-79
2022/04/25 06:35:36;;;;;;;14.57;8.50;;;8.30;99.90;;;;;;5012731;28;20115;-80
2022/04/25 06:38:02;;;;;;;15.23;7.80;;;8.50;99.90;;;;;;5042968;28;20048;-81
2022/04/25 06:40:27;;;;;;;12.38;7.90;;;8.40;99.90;;;;;;5062683;28;20098;-81
2022/04/25 06:42:53;;;;;;;19.77;8.77;;;8.40;99.90;;;;;;5023640;28;20060;-81
2022/04/25 06:45:19;;;;;;;13.73;8.15;;;8.30;99.90;;;;;;5032251;28;20453;-81
2022/04/25 06:47:45;;;;;;;14.15;8.32;;;8.40;99.90;;;;;;5012195;28;20052;-80
2022/04/25 06:50:11;;;;;;;12.93;7.10;;;8.30;99.90;;;;;;5032404;28;20055;-80
2022/04/25 06:52:38;;;;;;;11.90;7.47;;;8.40;99.90;;;;;;5032292;28;20049;-78
2022/04/25 06:55:05;;;;;;;13.93;9.18;;;8.60;99.90;;;;;;5014115;28;20080;-77
2022/04/25 06:57:33;;;;;;;14.27;8.10;;;8.50;99.90;;;;;;5040820;28;20068;-77
2022/04/25 07:00:08;;;;;;;13.27;8.02;;;8.60;99.90;;;;;;5028249;28;20131;-83
2022/04/25 07:02:35;;;;;;;14.68;8.65;;;8.60;99.90;;;;;;5050544;28;20047;-80
2022/04/25 07:05:04;;;;;;;13.90;8.38;;;8.60;99.90;;;;;;5010559;28;20042;-83
2022/04/25 07:07:35;;;;;;;14.95;8.52;;;8.60;99.90;;;;;;4994656;28;20080;-82
2022/04/25 07:10:02;;;;;;;16.00;8.68;;;8.60;99.90;;;;;;5027258;28;20103;-81
2022/04/25 07:12:27;;;;;;;17.08;8.80;;;8.60;99.90;;;;;;4996939;28;20132;-84
2022/04/25 07:14:54;;;;;;;15.10;8.27;;;8.60;99.90;;;;;;4997465;28;20144;-82
2022/04/25 07:17:19;;;;;;;13.30;8.90;;;8.50;99.90;;;;;;4980740;28;20046;-83
2022/04/25 07:19:45;;;;;;;18.70;9.18;;;8.70;99.90;;;;;;4997206;28;20045;-81
2022/04/25 07:30:24;;;;;;;16.27;8.85;;;8.80;99.90;;;;;;5012556;28;20048;-80
2022/04/25 07:32:50;;;;;;;21.70;9.98;;;9.00;99.90;;;;;;4994634;28;20053;-82
2022/04/25 07:35:16;;;;;;;14.05;8.90;;;9.00;99.90;;;;;;5000956;28;20156;-82
2022/04/25 07:37:45;;;;;;;15.70;9.27;;;8.70;99.90;;;;;;5050135;28;20109;-83
2022/04/25 07:40:11;;;;;;;17.70;8.50;;;8.80;99.90;;;;;;5049185;28;20051;-83
2022/04/25 07:42:39;;;;;;;16.95;9.00;;;8.60;99.90;;;;;;5051761;28;20394;-80
2022/04/25 07:45:06;;;;;;;21.25;8.27;;;8.70;99.90;;;;;;5036122;28;20084;-79
2022/04/25 07:47:32;;;;;;;15.45;7.20;;;8.70;99.90;;;;;;5033517;28;20037;-81
2022/04/25 07:49:59;;;;;;;16.55;7.85;;;8.70;99.90;;;;;;5051238;28;20365;-76
2022/04/25 07:52:25;;;;;;;14.63;7.43;;;8.80;99.90;;;;;;5040003;28;20051;-80
2022/04/25 07:54:52;;;;;;;12.95;7.18;;;8.80;99.90;;;;;;5033931;28;20048;-78
2022/04/25 07:57:19;;;;;;;13.43;6.25;;;8.80;99.90;;;;;;5042937;28;20075;-81
2022/04/25 07:59:45;;;;;;;12.70;6.75;;;8.90;99.90;;;;;;5046303;28;20643;-82
2022/04/25 08:02:11;;;;;;;11.90;6.10;;;8.90;99.90;;;;;;5030797;28;20047;-81
2022/04/25 08:04:37;;;;;;;11.80;5.80;;;8.80;99.90;;;;;;5033348;28;20041;-82
2022/04/25 08:07:03;;;;;;;14.43;5.20;;;8.90;99.90;;;;;;5025865;28;20467;-81
2022/04/25 08:09:31;;;;;;;13.43;5.18;;;8.90;99.90;;;;;;5039610;28;20036;-80
2022/04/25 08:20:22;;;;;;;18.13;5.47;;;9.80;99.90;;;;;;5045587;28;20059;-83
2022/04/25 08:22:48;;;;;;;14.98;4.82;;;9.70;99.90;;;;;;5027565;28;20056;-84
2022/04/25 08:25:18;;;;;;;42.97;5.78;;;9.80;99.90;;;;;;5034237;28;20037;-84
2022/04/25 08:27:43;;;;;;;16.92;7.25;;;10.30;99.90;;;;;;5043341;28;20049;-79
2022/04/25 08:30:11;;;;;;;24.85;6.30;;;10.60;99.90;;;;;;5066217;28;20085;-82
2022/04/25 08:32:37;;;;;;;28.88;6.05;;;10.40;99.90;;;;;;5030465;28;20144;-87
2022/04/25 08:35:03;;;;;;;36.75;5.90;;;10.30;99.90;;;;;;5037723;28;20265;-88
2022/04/25 08:37:29;;;;;;;9.23;5.20;;;10.60;99.90;;;;;;5036917;28;20226;-81
2022/04/25 08:39:55;;;;;;;100.80;8.77;;;10.50;99.90;;;;;;5053693;28;20564;-81
2022/04/25 08:42:20;;;;;;;216.05;12.90;;;10.50;99.90;;;;;;5033613;28;20048;-84
2022/04/25 08:44:52;;;;;;;377.85;19.70;;;10.30;99.90;;;;;;5050567;28;20493;-79
2022/04/25 08:47:19;;;;;;;10.27;5.70;;;10.40;99.90;;;;;;5031280;28;20040;-80
2022/04/25 08:49:44;;;;;;;14.57;6.85;;;10.30;99.90;;;;;;5059778;28;20069;-80
2022/04/25 08:52:10;;;;;;;12.77;6.35;;;10.30;99.90;;;;;;5021854;28;20135;-82
2022/04/25 08:54:36;;;;;;;23.25;4.93;;;10.20;99.90;;;;;;5037769;28;20048;-78
2022/04/25 08:57:03;;;;;;;11.13;4.97;;;10.20;99.90;;;;;;5053286;28;20040;-79
2022/04/25 08:59:32;;;;;;;9.60;4.78;;;10.30;99.90;;;;;;5036640;28;20048;-78
2022/04/25 09:01:57;;;;;;;11.70;4.47;;;10.40;99.90;;;;;;5032801;28;20052;-79
2022/04/25 09:04:24;;;;;;;9.00;4.57;;;10.40;99.90;;;;;;5055822;28;20040;-80
2022/04/25 09:06:51;;;;;;;6.47;4.25;;;10.50;99.90;;;;;;5032645;28;20495;-81
2022/04/25 09:09:20;;;;;;;8.68;4.25;;;10.40;99.90;;;;;;5043980;28;20115;-78
2022/04/25 09:14:31;;;;;;;13.30;4.47;;;10.50;99.90;;;;;;5062586;28;20100;-76
2022/04/25 09:16:57;;;;;;;11.73;4.65;;;10.90;99.90;;;;;;5040449;28;20067;-77
2022/04/25 09:19:23;;;;;;;13.38;4.10;;;10.80;99.90;;;;;;5055652;28;20395;-84
2022/04/25 09:21:52;;;;;;;9.50;4.07;;;10.80;99.90;;;;;;5037581;28;20040;-83
2022/04/25 09:24:26;;;;;;;5.53;3.20;;;10.80;99.90;;;;;;5049891;28;20036;-82
2022/04/25 09:27:18;;;;;;;8.23;4.33;;;10.70;99.90;;;;;;5031693;28;20403;-82
2022/04/25 09:29:46;;;;;;;11.18;4.28;;;10.90;99.90;;;;;;5023702;28;20383;-80
2022/04/25 09:32:17;;;;;;;8.65;4.30;;;11.00;99.90;;;;;;5034753;28;20046;-81
2022/04/25 09:35:02;;;;;;;9.70;4.20;;;10.80;99.90;;;;;;5024162;28;20051;-83
2022/04/25 09:37:46;;;;;;;8.30;4.05;;;10.80;99.90;;;;;;5054095;28;20111;-83
2022/04/25 09:40:15;;;;;;;7.95;3.72;;;10.80;99.90;;;;;;5064117;28;20052;-81
2022/04/25 09:42:40;;;;;;;8.13;3.47;;;10.80;99.90;;;;;;5053539;28;20037;-84
2022/04/25 09:45:06;;;;;;;9.27;3.90;;;11.00;99.90;;;;;;5055431;28;20056;-84
2022/04/25 09:47:36;;;;;;;9.27;3.67;;;10.80;99.90;;;;;;5045858;28;20052;-82
2022/04/25 09:50:08;;;;;;;5.82;2.90;;;10.90;99.90;;;;;;5051277;28;20464;-84
2022/04/25 09:52:49;;;;;;;5.72;3.63;;;10.80;99.90;;;;;;5041988;28;20048;-79
2022/04/25 09:55:16;;;;;;;13.10;3.83;;;11.10;99.90;;;;;;5064531;28;20044;-81
2022/04/25 09:57:46;;;;;;;6.75;3.50;;;11.10;99.90;;;;;;5064921;28;20452;-82
2022/04/25 10:00:30;;;;;;;9.77;3.95;;;11.20;99.90;;;;;;5045743;28;20076;-80
2022/04/25 10:02:57;;;;;;;10.68;4.20;;;11.30;99.90;;;;;;5047838;28;20059;-81
2022/04/25 10:05:34;;;;;;;8.55;4.20;;;11.50;99.90;;;;;;5060919;28;20215;-78
2022/04/25 10:08:00;;;;;;;38.08;4.85;;;11.50;99.90;;;;;;5072310;28;20079;-82
2022/04/25 10:10:27;;;;;;;17.02;3.92;;;11.80;99.90;;;;;;5069875;28;20132;-84
2022/04/25 10:12:55;;;;;;;5.72;3.50;;;11.90;99.90;;;;;;5032516;28;20435;-81
2022/04/25 10:15:22;;;;;;;11.57;3.30;;;11.90;99.90;;;;;;5048742;28;20194;-81
2022/04/25 10:17:51;;;;;;;5.90;3.05;;;12.10;99.90;;;;;;5048657;28;20049;-80
2022/04/25 10:20:17;;;;;;;8.40;4.05;;;12.30;99.90;;;;;;5048226;28;20060;-80
2022/04/25 10:22:43;;;;;;;5.97;3.63;;;12.60;99.90;;;;;;5028296;28;20071;-84
2022/04/25 10:25:10;;;;;;;11.75;3.78;;;13.00;99.90;;;;;;5049784;28;20068;-84
2022/04/25 10:27:39;;;;;;;12.48;3.63;;;13.00;99.90;;;;;;5065045;28;20041;-81
2022/04/25 10:30:14;;;;;;;6.88;3.80;;;12.90;99.90;;;;;;5042916;28;20032;-77
2022/04/25 10:32:40;;;;;;;7.70;3.80;;;12.90;99.90;;;;;;5024104;28;20394;-78
2022/04/25 10:39:27;;;;;;;8.00;3.58;;;12.80;99.90;;;;;;5079179;28;20422;-76
2022/04/25 10:44:37;;;;;;;9.00;3.60;;;12.60;99.90;;;;;;4924737;29;20069;-79
2022/04/25 10:47:05;;;;;;;7.50;3.50;;;12.60;99.90;;;;;;4928426;29;20051;-80
2022/04/25 10:49:33;;;;;;;9.65;3.58;;;12.70;99.90;;;;;;4921116;29;20047;-82
2022/04/25 10:51:59;;;;;;;10.63;3.90;;;12.90;99.90;;;;;;4953620;28;20071;-81
2022/04/25 10:54:30;;;;;;;5.07;3.17;;;12.90;99.90;;;;;;4920199;29;20178;-80
2022/04/25 10:57:07;;;;;;;13.07;3.65;;;13.00;99.90;;;;;;4917667;29;20059;-80
2022/04/25 10:59:34;;;;;;;11.73;3.15;;;13.10;99.90;;;;;;4923608;29;20100;-78
2022/04/25 11:02:00;;;;;;;6.70;3.35;;;13.00;99.90;;;;;;4914031;29;20816;-82
2022/04/25 11:04:26;;;;;;;9.27;3.20;;;13.10;99.90;;;;;;4934818;29;20081;-80
2022/04/25 11:07:21;;;;;;;5.25;3.10;;;13.00;99.90;;;;;;4931033;29;20147;-80
2022/04/25 11:09:47;;;;;;;9.10;3.25;;;13.10;99.90;;;;;;4916649;29;20223;-81
2022/04/25 11:12:13;;;;;;;4.20;3.03;;;13.10;99.90;;;;;;4953314;28;20361;-82
2022/04/25 11:15:00;;;;;;;6.47;3.40;;;13.10;99.90;;;;;;5030228;28;20060;-79
2022/04/25 11:17:26;;;;;;;5.32;2.97;;;13.10;99.90;;;;;;5018790;28;20056;-80
2022/04/25 11:19:54;;;;;;;5.93;3.22;;;13.30;99.90;;;;;;5032374;28;20140;-80
2022/04/25 11:22:46;;;;;;;5.43;3.47;;;13.30;99.90;;;;;;5044332;28;20526;-80
2022/04/25 11:25:27;;;;;;;6.57;3.35;;;13.30;99.90;;;;;;5037056;28;20036;-79
2022/04/25 11:28:07;;;;;;;4.28;3.13;;;13.50;99.90;;;;;;5045460;28;20175;-78
2022/04/25 11:30:33;;;;;;;5.72;3.17;;;13.50;99.90;;;;;;5031259;28;20104;-76
2022/04/25 11:33:03;;;;;;;9.35;3.50;;;13.70;99.90;;;;;;5027862;28;20056;-77
2022/04/25 11:35:30;;;;;;;5.03;3.10;;;13.70;99.90;;;;;;5027225;28;20118;-80
2022/04/25 11:37:57;;;;;;;8.90;3.60;;;13.70;99.90;;;;;;5026812;28;20567;-78
2022/04/25 11:40:23;;;;;;;9.27;3.60;;;13.50;99.90;;;;;;5042286;28;20055;-77
2022/04/25 11:42:49;;;;;;;12.13;3.67;;;13.70;99.90;;;;;;5040496;28;20045;-79
2022/04/25 11:45:14;;;;;;;9.25;4.00;;;13.60;99.90;;;;;;5031351;28;20052;-77
2022/04/25 11:47:40;;;;;;;13.70;3.17;;;13.60;99.90;;;;;;5037923;28;20059;-77
2022/04/25 11:50:25;;;;;;;10.00;4.18;;;13.60;99.90;;;;;;5028504;28;20099;-77
2022/04/25 11:52:54;;;;;;;8.23;3.72;;;13.80;99.90;;;;;;5039861;28;20045;-76
2022/04/25 11:55:32;;;;;;;8.18;3.92;;;13.50;99.90;;;;;;5026464;28;20057;-78
2022/04/25 11:57:58;;;;;;;6.78;3.65;;;13.30;99.90;;;;;;5046409;28;20076;-78
2022/04/25 12:00:24;;;;;;;9.23;3.63;;;13.00;99.90;;;;;;5043327;28;20158;-75
2022/04/25 12:02:50;;;;;;;9.55;3.97;;;13.00;99.90;;;;;;5043306;28;20544;-80
2022/04/25 12:05:31;;;;;;;9.05;3.85;;;13.10;99.90;;;;;;5046231;28;20043;-78
2022/04/25 12:16:14;;;;;;;11.45;4.38;;;13.30;99.90;;;;;;5039542;28;20060;-77
2022/04/25 12:18:50;;;;;;;11.23;4.53;;;13.00;99.90;;;;;;5023918;28;20440;-80
2022/04/25 12:21:19;;;;;;;6.18;4.03;;;12.90;99.90;;;;;;5044943;28;20052;-78
2022/04/25 12:23:51;;;;;;;9.77;4.00;;;13.00;99.90;;;;;;5025711;28;20048;-82
2022/04/25 12:26:27;;;;;;;8.75;4.18;;;12.90;99.90;;;;;;5014406;28;20520;-79
2022/04/25 12:28:59;;;;;;;10.90;4.35;;;13.00;99.90;;;;;;5023629;28;20060;-78
2022/04/25 12:31:25;;;;;;;11.27;4.53;;;13.20;99.90;;;;;;5026226;28;20048;-82
2022/04/25 12:33:51;;;;;;;8.60;4.10;;;13.00;99.90;;;;;;5047001;28;20421;-77
2022/04/25 12:36:20;;;;;;;10.50;4.45;;;13.00;99.90;;;;;;5048342;28;20052;-77
2022/04/25 12:38:52;;;;;;;10.80;4.38;;;13.00;99.90;;;;;;5023938;28;20060;-81
2022/04/25 12:41:39;;;;;;;9.45;4.90;;;13.10;99.90;;;;;;5048131;28;20345;-79
2022/04/25 12:44:11;;;;;;;6.15;3.88;;;13.10;99.90;;;;;;5024274;28;20060;-81
2022/04/25 12:46:49;;;;;;;11.60;4.20;;;13.20;99.90;;;;;;5023677;28;20040;-76
2022/04/25 12:49:20;;;;;;;7.88;4.22;;;13.20;99.90;;;;;;5024676;28;20088;-77
2022/04/25 12:51:55;;;;;;;9.32;4.22;;;13.40;99.90;;;;;;5030019;28;20087;-80
2022/04/25 12:54:24;;;;;;;7.55;4.07;;;13.40;99.90;;;;;;5016412;28;20053;-78
2022/04/25 12:56:51;;;;;;;10.40;4.47;;;13.40;99.90;;;;;;5038430;28;20164;-79
2022/04/25 12:59:28;;;;;;;9.07;3.83;;;13.50;99.90;;;;;;5044633;28;20378;-81
2022/04/25 13:02:09;;;;;;;9.27;4.10;;;13.50;99.90;;;;;;5020383;28;20046;-81
2022/04/25 13:04:54;;;;;;;10.75;4.53;;;13.50;99.90;;;;;;5012243;28;20045;-80
2022/04/25 13:07:22;;;;;;;8.73;4.20;;;13.70;99.90;;;;;;5048652;28;20037;-81
2022/04/25 13:09:48;;;;;;;11.25;4.35;;;13.70;99.90;;;;;;5031344;28;20060;-82
2022/04/25 13:12:16;;;;;;;12.35;4.68;;;13.70;99.90;;;;;;5040832;28;20036;-77
2022/04/25 13:14:42;;;;;;;6.97;4.22;;;14.40;99.90;;;;;;5028250;28;20060;-78
2022/04/25 13:17:09;;;;;;;6.05;3.60;;;15.00;99.90;;;;;;5031620;28;20597;-82
2022/04/25 13:19:36;;;;;;;9.07;4.22;;;15.50;99.90;;;;;;5047631;28;20052;-80
2022/04/25 13:22:02;;;;;;;7.38;3.90;;;15.70;99.90;;;;;;5026092;28;20056;-77
2022/04/25 13:24:27;;;;;;;12.15;4.32;;;15.70;99.90;;;;;;5033523;28;20456;-79
2022/04/25 13:26:54;;;;;;;14.45;4.60;;;15.70;99.90;;;;;;5031485;28;20104;-78
2022/04/25 13:29:20;;;;;;;10.25;4.68;;;15.80;99.90;;;;;;5012679;28;20045;-76
2022/04/25 13:31:46;;;;;;;7.25;4.20;;;16.10;99.90;;;;;;5016898;28;20231;-78
2022/04/25 13:34:13;;;;;;;9.50;4.60;;;16.10;99.90;;;;;;5016767;28;20440;-75
2022/04/25 13:36:39;;;;;;;12.70;4.55;;;16.50;99.90;;;;;;5035314;28;20060;-77